.
WxDataArchive / Data Records for 2006-05-04
2006-05-03 May 2006 2006-05-05

Data Records for Thursday, 04 May 2006

Time	Temp	Chill	HIndex	Humid	Dewpt	 Wind 	HiWind	WindDir	Rain 	Barom 
-----	----	-----	------	-----	-----	------	------	-------	-----	----- 
00:00	64.5	64.5	64.5	73	55.6	0	1	112	0.00	29.907 
00:05	64.7	64.7	64.7	72	55.5	0	1	112	0.00	29.907 
00:10	64.8	64.8	64.8	73	55.9	0	1	112	0.00	29.907 
00:15	64.8	64.8	64.8	73	55.9	0	0	---	0.00	29.901 
00:20	64.8	64.8	64.8	73	55.9	0	0	---	0.00	29.901 
00:25	65.0	65.0	65.0	74	56.5	0	0	---	0.00	29.901 
00:30	64.8	64.8	64.8	75	56.7	0	0	---	0.00	29.899 
00:35	64.8	64.8	64.8	74	56.3	0	1	112	0.00	29.899 
00:40	64.7	64.7	64.7	74	56.2	0	1	112	0.00	29.899 
00:45	64.7	64.7	64.7	74	56.2	0	1	112	0.00	29.898 
00:50	64.5	64.5	64.5	74	56.0	0	0	---	0.00	29.898 
00:55	64.5	64.5	64.5	74	56.0	0	0	---	0.00	29.898 
01:00	64.3	64.3	64.3	74	55.8	0	0	---	0.00	29.899 
01:05	64.2	64.2	64.2	74	55.7	0	0	---	0.00	29.899 
01:10	64.2	64.2	64.2	74	55.7	0	0	---	0.00	29.899 
01:15	64.0	64.0	64.0	74	55.5	0	0	---	0.00	29.893 
01:20	64.0	64.0	64.0	75	55.9	0	0	---	0.00	29.893 
01:25	63.9	63.9	63.9	76	56.2	0	0	---	0.00	29.893 
01:30	63.7	63.7	63.7	77	56.3	0	0	---	0.00	29.889 
01:35	63.5	63.5	63.5	78	56.5	0	0	---	0.00	29.889 
01:40	63.4	63.4	63.4	77	56.1	0	0	---	0.00	29.889 
01:45	63.2	63.2	63.2	77	55.9	0	0	---	0.00	29.886 
01:50	63.2	63.2	63.2	77	55.9	0	0	---	0.00	29.886 
01:55	63.2	63.2	63.2	76	55.5	0	0	---	0.00	29.886 
02:00	63.2	63.2	63.2	78	56.2	0	0	---	0.00	29.881 
02:05	63.2	63.2	63.2	77	55.9	0	0	---	0.00	29.881 
02:10	63.1	63.1	63.1	77	55.8	0	0	---	0.00	29.881 
02:15	62.9	62.9	62.9	78	55.9	0	0	---	0.00	29.875 
02:20	62.7	62.7	62.7	78	55.7	0	0	---	0.00	29.875 
02:25	62.6	62.6	62.6	77	55.3	0	0	---	0.00	29.875 
02:30	62.6	62.6	62.6	77	55.3	0	0	---	0.00	29.871 
02:35	62.7	62.7	62.7	76	55.0	0	0	---	0.00	29.871 
02:40	62.7	62.7	62.7	76	55.0	0	0	---	0.00	29.871 
02:45	62.7	62.7	62.7	75	54.7	0	0	---	0.00	29.870 
02:50	62.7	62.7	62.7	74	54.3	0	0	---	0.00	29.870 
02:55	62.7	62.7	62.7	74	54.3	0	1	112	0.00	29.870 
03:00	62.7	62.7	62.7	73	53.9	0	0	---	0.00	29.864 
03:05	62.9	62.9	62.9	73	54.1	0	1	112	0.00	29.864 
03:10	63.1	63.1	63.1	72	53.9	0	1	112	0.00	29.864 
03:15	63.1	63.1	63.1	72	53.9	0	0	---	0.00	29.859 
03:20	63.1	63.1	63.1	72	53.9	0	0	---	0.00	29.859 
03:25	63.2	63.2	63.2	72	54.0	0	0	---	0.00	29.859 
03:30	63.2	63.2	63.2	72	54.0	0	0	---	0.00	29.854 
03:35	63.1	63.1	63.1	72	53.9	0	0	---	0.00	29.854 
03:40	63.1	63.1	63.1	72	53.9	0	0	---	0.00	29.854 
03:45	63.1	63.1	63.1	73	54.3	0	1	112	0.00	29.855 
03:50	63.1	63.1	63.1	73	54.3	0	0	---	0.00	29.855 
03:55	63.2	63.2	63.2	73	54.4	0	2	112	0.00	29.855 
04:00	63.4	63.4	63.4	72	54.2	0	1	180	0.00	29.856 
04:05	63.9	63.9	63.9	72	54.7	1	4	248	0.00	29.856 
04:10	64.0	64.0	64.0	71	54.4	0	3	248	0.00	29.856 
04:15	64.2	64.2	64.2	71	54.6	0	2	270	0.00	29.851 
04:20	64.3	64.3	64.3	70	54.3	0	2	270	0.00	29.851 
04:25	64.5	64.5	64.5	70	54.5	0	2	270	0.00	29.851 
04:30	64.5	64.5	64.5	70	54.5	1	4	248	0.00	29.847 
04:35	64.5	64.5	64.5	70	54.5	0	2	248	0.00	29.847 
04:40	64.5	64.5	64.5	71	54.9	0	1	248	0.00	29.847 
04:45	64.3	64.3	64.3	71	54.7	0	1	248	0.00	29.845 
04:50	64.2	64.2	64.2	71	54.6	0	1	248	0.00	29.845 
04:55	64.0	64.0	64.0	72	54.8	0	2	248	0.00	29.845 
05:00	63.7	63.7	63.7	72	54.5	0	0	---	0.00	29.847 
05:05	63.4	63.4	63.4	73	54.6	0	1	248	0.00	29.847 
05:10	63.2	63.2	63.2	73	54.4	0	1	248	0.00	29.847 
05:15	63.1	63.1	63.1	74	54.7	0	1	248	0.00	29.850 
05:20	62.9	62.9	62.9	74	54.5	0	1	248	0.00	29.850 
05:25	62.7	62.7	62.7	74	54.3	0	1	248	0.00	29.850 
05:30	62.7	62.7	62.7	74	54.3	0	2	248	0.00	29.852 
05:35	62.6	62.6	62.6	75	54.6	0	1	248	0.00	29.852 
05:40	62.6	62.6	62.6	75	54.6	0	1	248	0.00	29.852 
05:45	62.4	62.4	62.4	75	54.4	0	1	248	0.00	29.854 
05:50	62.4	62.4	62.4	75	54.4	0	1	248	0.00	29.854 
05:55	62.3	62.3	62.3	75	54.3	0	0	---	0.00	29.854 
06:00	62.0	62.0	62.0	76	54.3	0	1	248	0.00	29.853 
06:05	61.8	61.8	61.8	76	54.1	0	0	---	0.00	29.853 
06:10	61.5	61.5	61.5	77	54.2	0	0	---	0.00	29.853 
06:15	61.2	61.2	61.2	77	53.9	0	0	---	0.00	29.856 
06:20	60.9	60.9	60.9	78	54.0	0	0	---	0.00	29.856 
06:25	60.9	60.9	60.9	78	54.0	0	1	248	0.00	29.856 
06:30	61.0	61.0	61.0	78	54.1	0	1	248	0.00	29.860 
06:35	60.9	60.9	60.9	78	54.0	0	1	248	0.00	29.860 
06:40	60.9	60.9	60.9	78	54.0	0	0	---	0.00	29.860 
06:45	60.7	60.7	60.7	78	53.8	0	1	248	0.00	29.860 
06:50	60.7	60.7	60.7	78	53.8	0	0	---	0.00	29.860 
06:55	60.5	60.5	60.5	79	54.0	0	0	---	0.00	29.860 
07:00	60.5	60.5	60.5	79	54.0	0	1	248	0.00	29.866 
07:05	60.7	60.7	60.7	79	54.1	0	1	248	0.00	29.866 
07:10	60.7	60.7	60.7	78	53.8	0	1	248	0.00	29.866 
07:15	60.9	60.9	60.9	77	53.6	0	1	248	0.00	29.873 
07:20	61.0	61.0	61.0	77	53.7	0	2	248	0.00	29.873 
07:25	61.0	61.0	61.0	77	53.7	0	1	248	0.00	29.873 
07:30	61.0	61.0	61.0	77	53.7	0	0	---	0.00	29.872 
07:35	61.0	61.0	61.0	77	53.7	0	1	248	0.00	29.872 
07:40	61.0	61.0	61.0	76	53.4	0	0	---	0.00	29.872 
07:45	61.2	61.2	61.2	76	53.6	0	1	248	0.00	29.874 
07:50	61.3	61.3	61.3	75	53.3	0	1	248	0.00	29.874 
07:55	61.6	61.6	61.6	75	53.6	0	2	248	0.00	29.874 
08:00	62.1	62.1	62.1	74	53.7	1	3	248	0.00	29.887 
08:05	62.4	62.4	62.4	74	54.0	1	2	248	0.00	29.887 
08:10	62.7	62.7	62.7	72	53.5	1	3	270	0.00	29.887 
08:15	63.1	63.1	63.1	71	53.5	0	2	292	0.00	29.892 
08:20	63.2	63.2	63.2	70	53.2	2	3	315	0.00	29.892 
08:25	63.4	63.4	63.4	69	53.0	1	5	338	0.00	29.892 
08:30	63.5	63.5	63.5	69	53.1	1	3	315	0.00	29.881 
08:35	63.7	63.7	63.7	69	53.3	1	3	292	0.00	29.881 
08:40	63.9	63.9	63.9	66	52.3	1	4	292	0.00	29.881 
08:45	64.0	64.0	64.0	65	52.0	1	3	315	0.00	29.880 
08:50	64.0	64.0	64.0	65	52.0	1	3	338	0.00	29.880 
08:55	64.2	64.2	64.2	65	52.2	1	3	292	0.00	29.880 
09:00	64.3	64.3	64.3	65	52.3	1	2	292	0.00	29.877 
09:05	64.7	64.7	64.7	62	51.4	1	4	248	0.00	29.877 
09:10	64.7	64.7	64.7	65	52.7	1	4	270	0.00	29.877 
09:15	64.8	64.8	64.8	63	51.9	1	5	292	0.00	29.875 
09:20	65.0	65.0	65.0	64	52.5	1	3	315	0.00	29.875 
09:25	65.2	65.2	65.2	62	51.8	2	3	270	0.00	29.875 
09:30	65.2	65.2	65.2	62	51.8	1	3	248	0.00	29.885 
09:35	64.8	64.8	64.8	62	51.5	1	3	270	0.00	29.885 
09:40	65.0	65.0	65.0	63	52.1	0	2	315	0.00	29.885 
09:45	65.2	65.2	65.2	61	51.4	2	4	292	0.00	29.888 
09:50	65.6	65.6	65.6	59	50.9	1	4	292	0.00	29.888 
09:55	65.8	65.8	65.8	61	52.0	1	4	315	0.00	29.888 
10:00	65.8	65.8	65.8	61	52.0	1	4	292	0.00	29.891 
10:05	66.0	66.0	66.0	57	50.3	2	5	292	0.00	29.891 
10:10	66.0	66.0	66.0	59	51.3	2	5	270	0.00	29.891 
10:15	66.3	66.3	66.3	57	50.6	2	4	270	0.00	29.890 
10:20	66.4	66.4	66.4	54	49.2	2	3	292	0.00	29.890 
10:25	66.6	66.6	66.6	56	50.4	1	3	292	0.00	29.890 
10:30	66.9	66.9	66.9	57	51.2	1	3	270	0.00	29.889 
10:35	66.9	66.9	66.9	55	50.2	2	4	270	0.00	29.889 
10:40	67.3	67.3	67.3	52	49.1	2	6	270	0.00	29.889 
10:45	67.8	67.8	67.8	53	50.0	1	3	292	0.00	29.891 
10:50	67.6	67.6	67.6	50	48.3	1	3	292	0.00	29.891 
10:55	67.3	67.3	67.3	53	49.6	1	3	338	0.00	29.891 
11:00	67.6	67.6	67.6	54	50.4	2	4	292	0.00	29.896 
11:05	67.8	67.8	67.8	50	48.5	1	3	270	0.00	29.896 
11:10	67.8	67.8	67.8	51	49.0	1	4	315	0.00	29.896 
11:15	67.8	67.8	67.8	48	47.4	1	5	248	0.00	29.891 
11:20	68.1	68.1	68.1	52	49.8	1	3	0	0.00	29.891 
11:25	68.6	68.6	68.6	47	47.6	1	3	292	0.00	29.891 
11:30	68.4	68.4	68.4	49	48.5	1	3	270	0.00	29.891 
11:35	68.8	68.8	68.8	49	48.8	1	3	338	0.00	29.891 
11:40	68.9	68.9	68.9	46	47.3	1	3	292	0.00	29.891 
11:45	68.8	68.8	68.8	43	45.4	2	4	315	0.00	29.892 
11:50	68.8	68.8	68.8	47	47.7	2	4	270	0.00	29.892 
11:55	69.3	69.3	69.3	46	47.6	1	2	315	0.00	29.892 
12:00	69.1	69.1	69.1	44	46.3	2	6	338	0.00	29.889 
12:05	69.1	69.1	69.1	45	46.9	2	5	270	0.00	29.889 
12:10	69.1	69.1	69.1	48	48.6	2	6	248	0.00	29.889 
12:15	69.6	69.6	69.6	49	49.6	1	4	338	0.00	29.889 
12:20	69.9	69.9	69.9	43	46.4	1	4	248	0.00	29.889 
12:25	70.3	70.3	70.3	42	46.1	2	6	248	0.00	29.889 
12:30	70.6	70.6	70.6	45	48.2	1	4	270	0.00	29.886 
12:35	70.3	70.3	70.3	40	44.8	2	5	315	0.00	29.886 
12:40	69.9	69.9	69.9	40	44.5	2	4	248	0.00	29.886 
12:45	69.8	69.8	69.8	44	46.9	2	10	315	0.00	29.883 
12:50	69.9	69.9	69.9	41	45.1	2	5	315	0.00	29.883 
12:55	70.1	70.1	70.1	43	46.6	2	5	292	0.00	29.883 
13:00	70.1	70.1	70.1	43	46.6	2	4	292	0.00	29.878 
13:05	70.6	70.6	70.6	39	44.4	2	4	248	0.00	29.878 
13:10	70.4	70.4	70.4	43	46.8	3	8	270	0.00	29.878 
13:15	70.4	70.4	70.4	43	46.8	2	5	315	0.00	29.879 
13:20	70.8	70.8	70.8	41	45.9	2	7	315	0.00	29.879 
13:25	71.1	71.1	71.1	45	48.7	1	5	270	0.00	29.879 
13:30	71.1	71.1	71.1	45	48.7	2	6	270	0.00	29.875 
13:35	70.8	70.8	70.8	41	45.9	3	5	315	0.00	29.875 
13:40	70.9	70.9	70.9	44	47.9	2	5	270	0.00	29.875 
13:45	71.1	71.1	71.1	41	46.2	3	6	270	0.00	29.874 
13:50	71.3	71.3	71.3	44	48.2	2	4	315	0.00	29.874 
13:55	71.3	71.3	71.3	43	47.6	2	5	270	0.00	29.874 
14:00	71.5	71.5	71.5	42	47.2	2	5	270	0.00	29.871 
14:05	71.6	71.6	71.6	41	46.6	2	5	270	0.00	29.871 
14:10	71.6	71.6	71.6	40	46.0	2	5	270	0.00	29.871 
14:15	71.6	71.6	71.6	50	52.0	2	4	292	0.00	29.871 
14:20	72.0	72.0	72.0	39	45.7	2	5	270	0.00	29.871 
14:25	71.8	71.8	71.8	39	45.5	2	7	270	0.00	29.871 
14:30	71.3	71.3	71.3	36	43.0	2	4	292	0.00	29.866 
14:35	71.3	71.3	71.3	39	45.1	2	7	338	0.00	29.866 
14:40	72.0	72.0	72.0	42	47.6	2	5	248	0.00	29.866 
14:45	71.8	71.8	71.8	41	46.8	3	6	270	0.00	29.863 
14:50	71.6	71.6	71.6	43	47.9	2	6	248	0.00	29.863 
14:55	71.8	71.8	71.8	40	46.2	3	5	270	0.00	29.863 
15:00	71.6	71.6	71.6	38	44.6	2	4	270	0.00	29.857 
15:05	72.0	72.0	72.0	38	45.0	2	5	270	0.00	29.857 
15:10	72.1	72.1	72.1	37	44.4	4	8	270	0.00	29.857 
15:15	71.8	71.8	71.8	38	44.8	3	5	270	0.00	29.859 
15:20	72.0	72.0	72.0	35	42.8	3	5	248	0.00	29.859 
15:25	72.0	72.0	72.0	36	43.6	3	6	270	0.00	29.859 
15:30	71.8	71.8	71.8	35	42.7	2	6	270	0.00	29.860 
15:35	71.5	71.5	71.5	32	40.1	2	6	315	0.00	29.860 
15:40	71.5	71.5	71.5	34	41.6	2	6	270	0.00	29.860 
15:45	71.8	71.8	71.8	36	43.4	3	5	292	0.00	29.865 
15:50	71.8	71.8	71.8	37	44.1	3	7	270	0.00	29.865 
15:55	71.3	71.3	71.3	35	42.2	2	5	315	0.00	29.865 
16:00	71.6	71.6	71.6	36	43.2	2	5	315	0.00	29.870 
16:05	71.5	71.5	71.5	36	43.1	3	5	292	0.00	29.870 
16:10	71.3	71.3	71.3	38	44.4	2	5	315	0.00	29.870 
16:15	71.3	71.3	71.3	38	44.4	2	4	315	0.00	29.870 
16:20	71.1	71.1	71.1	37	43.5	4	6	270	0.00	29.870 
16:25	70.9	70.9	70.9	39	44.7	3	6	270	0.00	29.870 
16:30	70.6	70.6	70.6	38	43.7	3	11	270	0.00	29.869 
16:35	70.3	70.3	70.3	36	42.1	3	6	292	0.00	29.869 
16:40	70.3	70.3	70.3	38	43.5	2	7	315	0.00	29.869 
16:45	70.1	70.1	70.1	39	44.0	3	5	270	0.00	29.867 
16:50	70.1	70.1	70.1	38	43.3	3	12	270	0.00	29.867 
16:55	70.3	70.3	70.3	37	42.8	3	5	248	0.00	29.867 
17:00	70.3	70.3	70.3	34	40.6	3	5	248	0.00	29.872 
17:05	69.4	69.4	69.4	37	42.0	3	7	292	0.00	29.872 
17:10	69.4	69.4	69.4	36	41.3	3	6	270	0.00	29.872 
17:15	68.9	68.9	68.9	38	42.2	2	5	338	0.00	29.874 
17:20	69.1	69.1	69.1	38	42.4	3	6	270	0.00	29.874 
17:25	68.9	68.9	68.9	37	41.5	3	7	315	0.00	29.874 
17:30	68.9	68.9	68.9	41	44.2	2	4	270	0.00	29.871 
17:35	68.6	68.6	68.6	36	40.6	3	6	270	0.00	29.871 
17:40	68.4	68.4	68.4	37	41.1	3	6	248	0.00	29.871 
17:45	68.1	68.1	68.1	38	41.5	2	5	270	0.00	29.876 
17:50	68.1	68.1	68.1	41	43.5	2	4	292	0.00	29.876 
17:55	67.9	67.9	67.9	41	43.3	2	7	270	0.00	29.876 
18:00	67.9	67.9	67.9	41	43.3	2	7	270	0.00	29.877 
18:05	67.9	67.9	67.9	40	42.7	2	5	270	0.00	29.877 
18:10	67.6	67.6	67.6	40	42.4	2	4	248	0.00	29.877 
18:15	67.4	67.4	67.4	41	42.9	2	6	248	0.00	29.879 
18:20	67.3	67.3	67.3	40	42.1	2	5	248	0.00	29.879 
18:25	66.8	66.8	66.8	39	41.0	2	4	270	0.00	29.879 
18:30	66.8	66.8	66.8	41	42.3	1	3	270	0.00	29.879 
18:35	67.1	67.1	67.1	41	42.6	1	2	292	0.00	29.879 
18:40	66.9	66.9	66.9	41	42.4	1	4	292	0.00	29.879 
18:45	66.6	66.6	66.6	40	41.5	1	4	292	0.00	29.879 
18:50	66.1	66.1	66.1	40	41.1	2	5	315	0.00	29.879 
18:55	65.8	65.8	65.8	40	40.8	1	4	338	0.00	29.879 
19:00	65.6	65.6	65.6	39	40.0	1	4	270	0.00	29.878 
19:05	65.6	65.6	65.6	39	40.0	1	3	315	0.00	29.878 
19:10	65.5	65.5	65.5	37	38.5	1	3	0	0.00	29.878 
19:15	65.3	65.3	65.3	39	39.7	1	2	292	0.00	29.874 
19:20	65.2	65.2	65.2	39	39.6	1	3	315	0.00	29.874 
19:25	64.7	64.7	64.7	40	39.8	1	4	270	0.00	29.874 
19:30	64.7	64.7	64.7	39	39.2	1	5	270	0.00	29.868 
19:35	64.5	64.5	64.5	40	39.6	1	3	315	0.00	29.868 
19:40	64.3	64.3	64.3	41	40.1	1	3	292	0.00	29.868 
19:45	64.0	64.0	64.0	42	40.4	1	3	292	0.00	29.866 
19:50	63.9	63.9	63.9	43	41.0	1	4	270	0.00	29.866 
19:55	63.7	63.7	63.7	43	40.8	0	2	270	0.00	29.866 
20:00	63.4	63.4	63.4	44	41.1	1	2	270	0.00	29.867 
20:05	63.2	63.2	63.2	43	40.3	1	4	270	0.00	29.867 
20:10	63.1	63.1	63.1	42	39.6	1	2	270	0.00	29.867 
20:15	62.9	62.9	62.9	41	38.8	0	3	338	0.00	29.865 
20:20	62.4	62.4	62.4	42	39.0	0	2	338	0.00	29.865 
20:25	62.1	62.1	62.1	43	39.3	0	2	338	0.00	29.865 
20:30	61.8	61.8	61.8	44	39.7	0	1	315	0.00	29.866 
20:35	61.5	61.5	61.5	44	39.4	0	2	315	0.00	29.866 
20:40	61.2	61.2	61.2	46	40.3	0	2	315	0.00	29.866 
20:45	60.7	60.7	60.7	46	39.8	0	1	315	0.00	29.870 
20:50	60.4	60.4	60.4	45	39.0	0	3	292	0.00	29.870 
20:55	60.1	60.1	60.1	46	39.2	0	1	292	0.00	29.870 
21:00	60.1	60.1	60.1	45	38.7	1	3	292	0.00	29.880 
21:05	59.8	59.8	59.8	45	38.4	0	3	270	0.00	29.880 
21:10	59.6	59.6	59.6	44	37.7	0	3	270	0.00	29.880 
21:15	59.3	59.3	59.3	44	37.4	0	1	248	0.00	29.882 
21:20	59.0	59.0	59.0	45	37.7	0	1	248	0.00	29.882 
21:25	58.7	58.7	58.7	46	38.0	0	1	248	0.00	29.882 
21:30	58.4	58.4	58.4	46	37.7	0	0	---	0.00	29.881 
21:35	58.0	58.0	58.0	46	37.3	0	0	---	0.00	29.881 
21:40	57.5	57.5	57.5	47	37.4	0	0	---	0.00	29.881 
21:45	57.0	57.0	57.0	47	37.0	0	0	---	0.00	29.885 
21:50	56.7	56.7	56.7	49	37.8	0	0	---	0.00	29.885 
21:55	56.7	56.7	56.7	49	37.8	0	1	248	0.00	29.885 
22:00	56.6	56.6	56.6	49	37.7	0	0	---	0.00	29.895 
22:05	56.3	56.3	56.3	49	37.4	0	0	---	0.00	29.895 
22:10	56.2	56.2	56.2	49	37.3	0	0	---	0.00	29.895 
22:15	55.7	55.7	55.7	50	37.3	0	0	---	0.00	29.897 
22:20	55.4	55.4	55.4	51	37.6	0	0	---	0.00	29.897 
22:25	55.3	55.3	55.3	52	38.0	0	0	---	0.00	29.897 
22:30	55.0	55.0	55.0	52	37.7	0	0	---	0.00	29.900 
22:35	54.8	54.8	54.8	52	37.5	0	0	---	0.00	29.900 
22:40	54.5	54.5	54.5	53	37.7	0	0	---	0.00	29.900 
22:45	54.2	54.2	54.2	54	37.9	0	0	---	0.00	29.904 
22:50	54.1	54.1	54.1	54	37.8	0	0	---	0.00	29.904 
22:55	53.8	53.8	53.8	55	38.0	0	0	---	0.00	29.904 
23:00	53.5	53.5	53.5	55	37.7	0	0	---	0.00	29.907 
23:05	53.2	53.2	53.2	56	37.9	0	0	---	0.00	29.907 
23:10	53.2	53.2	53.2	56	37.9	0	0	---	0.00	29.907 
23:15	53.2	53.2	53.2	57	38.4	0	0	---	0.00	29.904 
23:20	53.1	53.1	53.1	56	37.8	0	0	---	0.00	29.904 
23:25	53.1	53.1	53.1	56	37.8	0	0	---	0.00	29.904 
23:30	52.9	52.9	52.9	58	38.5	0	0	---	0.00	29.906 
23:35	52.8	52.8	52.8	58	38.4	0	0	---	0.00	29.906 
23:40	52.5	52.5	52.5	59	38.6	0	0	---	0.00	29.906 
23:45	52.2	52.2	52.2	60	38.7	0	0	---	0.00	29.907 
23:50	51.9	51.9	51.9	61	38.9	0	0	---	0.00	29.907 
23:55	51.6	51.6	51.6	61	38.6	0	0	---	0.00	29.907 

CoCoRaHS
IN-AL-39
A2 Web Hosting
Creative Commons License
GoDaddy
Look for:

loaded 2017-12-13 15:58:27 • last modified 2010-11-18 10:43:29
Privacy PolicyDisclaimer
• wx.awcolley.com is powered by PmWiki v.2002016 •
• all content (unless otherwise noted) © 2017 A W Colley